createdAt,value
2019-05-03T00:02:03.159Z,72.34
2019-05-03T00:04:31.668Z,71.71
2019-05-03T00:06:59.967Z,71.79
2019-05-03T00:09:28.251Z,73.06
2019-05-03T00:11:56.542Z,72.22
2019-05-03T00:14:25.460Z,71.34
2019-05-03T00:16:53.728Z,71.57
2019-05-03T00:19:22.054Z,71.27
2019-05-03T00:21:50.238Z,71.05
2019-05-03T00:24:18.536Z,71.49
2019-05-03T00:26:46.886Z,72.71
2019-05-03T00:29:15.134Z,70.38
2019-05-03T00:31:43.394Z,70.66
2019-05-03T00:34:13.295Z,70.38
2019-05-03T00:36:43.192Z,71.58
2019-05-03T00:39:13.114Z,71.18
2019-05-03T00:41:42.577Z,70.26
2019-05-03T00:44:11.577Z,70.55
2019-05-03T00:46:39.846Z,70.72
2019-05-03T00:49:08.133Z,70.98
2019-05-03T00:51:36.402Z,71.46
2019-05-03T00:54:04.746Z,71.74
2019-05-03T00:56:33.135Z,71.09
2019-05-03T00:59:02.229Z,71.79
2019-05-03T01:01:32.066Z,70.14
2019-05-03T01:04:01.835Z,71.28
2019-05-03T01:06:31.835Z,71.50
2019-05-03T01:09:02.648Z,72.44
2019-05-03T01:11:32.409Z,70.82
2019-05-03T01:14:02.268Z,71.21
2019-05-03T01:16:31.845Z,71.64
2019-05-03T01:19:00.355Z,71.65
2019-05-03T01:21:28.626Z,71.98
2019-05-03T01:23:56.884Z,72.14
2019-05-03T01:26:25.152Z,71.48
2019-05-03T01:28:53.455Z,71.88
2019-05-03T01:31:22.868Z,70.76
2019-05-03T01:33:51.755Z,70.69
2019-05-03T01:36:20.266Z,71.30
2019-05-03T01:38:48.575Z,71.71
2019-05-03T01:41:16.839Z,71.08
2019-05-03T01:43:45.122Z,72.81
2019-05-03T01:46:13.385Z,72.10
2019-05-03T01:48:52.111Z,72.18
2019-05-03T01:51:22.031Z,71.42
2019-05-03T01:53:52.325Z,70.41
2019-05-03T01:56:22.316Z,70.27
2019-05-03T01:58:52.265Z,70.09
2019-05-03T02:01:34.305Z,69.40
2019-05-03T02:04:16.228Z,68.50
2019-05-03T02:06:44.508Z,67.58
2019-05-03T02:09:12.769Z,66.65
2019-05-03T02:11:42.103Z,66.30
2019-05-03T02:14:12.223Z,66.41
2019-05-03T02:16:42.038Z,65.77
2019-05-03T02:19:12.500Z,67.45
2019-05-03T02:21:41.688Z,66.81
2019-05-03T02:24:11.753Z,66.20
2019-05-03T02:26:39.981Z,67.04
2019-05-03T02:29:08.257Z,66.54
2019-05-03T02:31:37.508Z,65.08
2019-05-03T02:34:05.766Z,66.40
2019-05-03T02:36:34.088Z,65.79
2019-05-03T02:39:03.027Z,67.12
2019-05-03T02:41:31.351Z,66.01
2019-05-03T02:44:00.738Z,65.85
2019-05-03T02:46:35.852Z,65.98
2019-05-03T02:49:06.395Z,66.41
2019-05-03T02:51:36.028Z,65.69
2019-05-03T02:54:05.599Z,65.15
2019-05-03T02:56:35.706Z,65.49
2019-05-03T02:59:06.188Z,64.47
2019-05-03T03:01:35.939Z,65.23
2019-05-03T03:04:05.835Z,64.79
2019-05-03T03:06:36.649Z,64.65
2019-05-03T03:09:06.212Z,65.29
2019-05-03T03:11:37.294Z,64.71
2019-05-03T03:14:06.108Z,64.98
2019-05-03T03:16:36.110Z,65.64
2019-05-03T03:19:06.720Z,65.03
2019-05-03T03:21:37.886Z,65.89
2019-05-03T03:24:11.617Z,66.26
2019-05-03T03:26:43.125Z,66.10
2019-05-03T03:29:12.681Z,65.65
2019-05-03T03:31:58.065Z,65.76
2019-05-03T03:34:29.082Z,65.33
2019-05-03T03:37:04.463Z,65.96
2019-05-03T03:39:27.533Z,65.99
2019-05-03T03:41:56.256Z,65.48
2019-05-03T03:44:25.693Z,65.43
2019-05-03T03:46:57.409Z,65.80
2019-05-03T03:49:28.576Z,65.45
2019-05-03T03:51:58.162Z,66.23
2019-05-03T03:54:26.434Z,67.50
2019-05-03T03:57:03.376Z,66.28
2019-05-03T03:59:26.970Z,66.27
2019-05-03T04:01:55.519Z,66.38
2019-05-03T04:04:25.990Z,66.37
2019-05-03T04:06:58.489Z,66.07
2019-05-03T04:09:25.533Z,65.36
2019-05-03T04:11:56.629Z,65.45
2019-05-03T04:14:26.023Z,65.28
2019-05-03T04:16:56.357Z,65.75
2019-05-03T04:19:36.345Z,65.96
2019-05-03T04:22:05.898Z,65.23
2019-05-03T04:24:35.274Z,67.06
2019-05-03T04:27:18.005Z,67.63
2019-05-03T04:29:37.811Z,66.54
2019-05-03T04:32:08.013Z,66.29
2019-05-03T04:34:36.691Z,65.61
2019-05-03T04:37:05.671Z,67.07
2019-05-03T04:39:35.971Z,67.42
2019-05-03T04:42:06.776Z,67.21
2019-05-03T04:44:35.750Z,65.91
2019-05-03T04:47:06.910Z,67.75
2019-05-03T04:49:36.243Z,67.19
2019-05-03T04:52:05.792Z,66.86
2019-05-03T04:54:36.085Z,66.97
2019-05-03T04:57:06.547Z,68.48
2019-05-03T04:59:35.874Z,67.71
2019-05-03T05:02:06.128Z,67.27
2019-05-03T05:04:35.695Z,68.07
2019-05-03T05:07:06.254Z,67.57
2019-05-03T05:09:35.102Z,67.29
2019-05-03T05:12:05.751Z,66.81
2019-05-03T05:14:35.286Z,68.43
2019-05-03T05:17:06.073Z,69.22
2019-05-03T05:19:41.453Z,67.34
2019-05-03T05:22:12.282Z,68.09
2019-05-03T05:24:40.556Z,67.02
2019-05-03T05:27:25.754Z,68.10
2019-05-03T05:29:55.416Z,69.01
2019-05-03T05:32:24.770Z,69.46
2019-05-03T05:34:54.938Z,69.22
2019-05-03T05:37:24.995Z,69.52
2019-05-03T05:39:55.079Z,69.35
2019-05-03T05:42:25.094Z,68.78
2019-05-03T05:44:55.539Z,68.29
2019-05-03T05:47:40.144Z,68.11
2019-05-03T05:50:10.210Z,67.01
2019-05-03T05:52:38.509Z,67.71
2019-05-03T05:55:11.765Z,66.73
2019-05-03T05:57:47.694Z,66.00
2019-05-03T06:00:17.753Z,67.65
2019-05-03T06:02:46.018Z,66.93
2019-05-03T06:05:14.822Z,67.25
2019-05-03T06:08:01.003Z,65.86
2019-05-03T06:10:34.801Z,67.99
2019-05-03T06:13:11.470Z,69.66
2019-05-03T06:15:57.844Z,68.35
2019-05-03T06:18:31.470Z,69.92
2019-05-03T06:21:01.519Z,69.88
2019-05-03T06:23:31.426Z,69.74
2019-05-03T06:26:00.176Z,69.01
2019-05-03T06:28:35.217Z,69.05
2019-05-03T06:31:19.306Z,67.96
2019-05-03T06:33:46.806Z,68.06
2019-05-03T06:36:15.352Z,68.10
2019-05-03T06:38:44.715Z,68.05
2019-05-03T06:41:14.863Z,67.99
2019-05-03T06:43:47.327Z,67.79
2019-05-03T06:46:16.341Z,67.21
2019-05-03T06:48:44.419Z,66.40
2019-05-03T06:51:17.877Z,66.55
2019-05-03T06:53:49.066Z,66.12
2019-05-03T06:56:14.739Z,65.71
2019-05-03T06:58:49.857Z,67.70
2019-05-03T07:01:21.583Z,66.31
2019-05-03T07:04:08.587Z,65.45
2019-05-03T07:06:41.028Z,64.39
2019-05-03T07:09:11.106Z,64.95
2019-05-03T07:11:39.360Z,65.14
2019-05-03T07:14:07.649Z,64.97
2019-05-03T07:16:35.913Z,65.81
2019-05-03T07:19:04.530Z,65.50
2019-05-03T07:21:35.420Z,64.81
2019-05-03T07:24:05.394Z,65.44
2019-05-03T07:26:34.367Z,65.00
2019-05-03T07:29:04.813Z,65.09
2019-05-03T07:31:32.743Z,64.63
2019-05-03T07:34:01.084Z,64.50
2019-05-03T07:36:29.430Z,64.54
2019-05-03T07:38:57.707Z,65.45
2019-05-03T07:41:28.049Z,63.63
2019-05-03T07:43:56.312Z,62.43
2019-05-03T07:46:25.630Z,60.53
2019-05-03T07:48:54.827Z,60.28
2019-05-03T07:51:24.886Z,60.51
2019-05-03T07:53:55.382Z,59.35
2019-05-03T07:56:25.481Z,60.48
2019-05-03T07:59:02.841Z,61.03
2019-05-03T08:01:26.330Z,59.78
2019-05-03T08:03:55.177Z,58.66
2019-05-03T08:06:24.677Z,59.15
2019-05-03T08:08:54.529Z,58.56
2019-05-03T08:11:24.740Z,58.72
2019-05-03T08:13:54.903Z,59.26
2019-05-03T08:16:25.090Z,59.37
2019-05-03T08:18:55.606Z,60.33
2019-05-03T08:21:25.234Z,60.89
2019-05-03T08:23:55.601Z,59.89
2019-05-03T08:26:25.691Z,60.91
2019-05-03T08:28:54.548Z,60.58
2019-05-03T08:31:27.155Z,60.81
2019-05-03T08:33:57.138Z,60.25
2019-05-03T08:36:25.388Z,60.04
2019-05-03T08:38:56.096Z,60.11
2019-05-03T08:41:25.664Z,58.29
2019-05-03T08:43:54.983Z,58.52
2019-05-03T08:46:25.316Z,58.57
2019-05-03T08:48:54.807Z,58.76
2019-05-03T08:51:24.980Z,58.94
2019-05-03T08:53:55.970Z,60.07
2019-05-03T08:56:24.711Z,58.07
2019-05-03T08:58:52.988Z,57.45
2019-05-03T09:01:22.303Z,57.06
2019-05-03T09:03:50.570Z,56.18
2019-05-03T09:06:18.843Z,56.15
2019-05-03T09:08:47.117Z,55.56
2019-05-03T09:11:17.053Z,55.76
2019-05-03T09:13:46.971Z,54.12
2019-05-03T09:16:15.326Z,52.48
2019-05-03T09:18:45.424Z,51.96
2019-05-03T09:21:14.795Z,53.00
2019-05-03T09:23:45.079Z,52.04
2019-05-03T09:26:15.131Z,50.87
2019-05-03T09:28:45.237Z,51.18
2019-05-03T09:31:14.876Z,49.40
2019-05-03T09:33:45.134Z,49.23
2019-05-03T09:36:14.724Z,48.67
2019-05-03T09:38:45.536Z,48.13
2019-05-03T09:41:15.095Z,48.42
2019-05-03T09:43:45.037Z,48.27
2019-05-03T09:46:14.548Z,48.58
2019-05-03T09:48:45.118Z,49.45
2019-05-03T09:51:14.765Z,48.21
2019-05-03T09:53:55.483Z,48.10
2019-05-03T09:56:53.445Z,47.34
2019-05-03T09:59:11.438Z,46.83
2019-05-03T10:01:39.695Z,46.23
2019-05-03T10:04:07.963Z,46.73
2019-05-03T10:06:36.258Z,45.12
2019-05-03T10:09:05.924Z,46.92
2019-05-03T10:11:35.123Z,47.25
2019-05-03T10:14:04.672Z,46.98
2019-05-03T10:16:35.147Z,46.54
2019-05-03T10:19:03.441Z,47.81
2019-05-03T10:21:35.451Z,46.84
2019-05-03T10:24:05.573Z,45.99
2019-05-03T10:26:35.468Z,45.10
2019-05-03T10:29:05.482Z,46.44
2019-05-03T10:31:38.437Z,45.74
2019-05-03T10:34:07.780Z,47.10
2019-05-03T10:36:38.127Z,47.25
2019-05-03T10:39:06.400Z,45.86
2019-05-03T10:41:34.938Z,44.94
2019-05-03T10:44:03.281Z,43.44
2019-05-03T10:46:34.553Z,43.45
2019-05-03T10:49:02.863Z,42.28
2019-05-03T10:51:32.832Z,41.65
2019-05-03T10:54:01.171Z,41.32
2019-05-03T10:56:31.084Z,41.95
2019-05-03T10:59:01.018Z,43.02
2019-05-03T11:01:47.209Z,43.52
2019-05-03T11:04:16.479Z,43.67
2019-05-03T11:06:45.798Z,43.07
2019-05-03T11:09:15.271Z,43.76
2019-05-03T11:11:45.275Z,43.84
2019-05-03T11:14:15.862Z,43.63
2019-05-03T11:16:46.055Z,43.89
2019-05-03T11:19:14.659Z,45.04
2019-05-03T11:21:45.329Z,45.88
2019-05-03T11:24:14.730Z,45.28
2019-05-03T11:26:45.391Z,44.94
2019-05-03T11:29:15.837Z,45.54
2019-05-03T11:34:44.958Z,45.85
2019-05-03T11:37:30.656Z,46.39
2019-05-03T11:39:58.922Z,46.57
2019-05-03T11:42:27.181Z,48.53
2019-05-03T11:44:55.473Z,50.48
2019-05-03T11:47:25.585Z,44.83
2019-05-03T11:49:54.835Z,44.84
2019-05-03T11:52:29.844Z,42.54
2019-05-03T11:54:59.163Z,43.22
2019-05-03T11:57:28.145Z,43.55
2019-05-03T11:59:58.383Z,43.50
2019-05-03T12:02:31.489Z,44.68
2019-05-03T12:05:20.520Z,44.51
2019-05-03T12:07:48.805Z,44.72
2019-05-03T12:10:32.472Z,44.05
2019-05-03T12:12:49.378Z,45.15
2019-05-03T12:15:17.863Z,44.88
2019-05-03T12:17:54.373Z,44.67
2019-05-03T12:20:20.727Z,43.02
2019-05-03T12:22:49.912Z,43.68
2019-05-03T12:25:19.569Z,43.32
2019-05-03T12:27:50.485Z,42.80
2019-05-03T12:30:27.430Z,43.12
2019-05-03T12:32:54.693Z,42.12
2019-05-03T12:35:24.646Z,43.29
2019-05-03T12:37:55.360Z,42.64
2019-05-03T12:40:23.130Z,43.80
2019-05-03T12:42:55.231Z,42.33
2019-05-03T12:45:24.773Z,40.05
2019-05-03T12:47:55.676Z,38.68
2019-05-03T12:50:25.210Z,37.23
2019-05-03T12:52:55.411Z,37.04
2019-05-03T12:55:24.757Z,35.77
2019-05-03T12:57:55.361Z,33.67
2019-05-03T13:00:31.863Z,33.13
2019-05-03T13:03:04.659Z,32.97
2019-05-03T13:05:32.943Z,32.59
2019-05-03T13:08:22.154Z,32.63
2019-05-03T13:10:50.479Z,37.50
2019-05-03T13:13:18.791Z,37.33
2019-05-03T13:15:47.138Z,38.34
2019-05-03T13:18:15.749Z,37.42
2019-05-03T13:20:45.347Z,38.14
2019-05-03T13:23:13.869Z,37.94
2019-05-03T13:25:44.739Z,39.04
2019-05-03T13:28:15.344Z,40.55
2019-05-03T13:30:56.212Z,38.99
2019-05-03T13:33:29.170Z,37.86
2019-05-03T13:35:57.542Z,35.24
2019-05-03T13:38:45.371Z,33.82
2019-05-03T13:41:15.627Z,32.56
2019-05-03T13:43:45.473Z,35.25
2019-05-03T13:46:15.677Z,36.65
2019-05-03T13:48:49.080Z,36.87
2019-05-03T13:51:16.287Z,38.91
2019-05-03T13:53:50.287Z,37.99
2019-05-03T13:56:19.594Z,37.97
2019-05-03T13:58:47.862Z,38.42
2019-05-03T14:01:16.194Z,39.43
2019-05-03T14:03:45.253Z,39.25
2019-05-03T14:06:20.024Z,39.77
2019-05-03T14:09:02.373Z,38.96
2019-05-03T14:11:32.404Z,38.33
2019-05-03T14:14:00.678Z,37.16
2019-05-03T14:16:29.960Z,34.78
2019-05-03T14:18:59.914Z,33.31
2019-05-03T14:21:30.816Z,31.97
2019-05-03T14:24:15.775Z,30.41
2019-05-03T14:26:44.918Z,31.34
2019-05-03T14:29:14.930Z,34.09
2019-05-03T14:31:45.471Z,35.31
2019-05-03T14:34:16.953Z,33.37
2019-05-03T14:36:44.965Z,34.11
2019-05-03T14:39:15.061Z,33.56
2019-05-03T14:41:46.536Z,34.44
2019-05-03T14:44:15.584Z,32.08
2019-05-03T14:46:45.674Z,32.47
2019-05-03T14:49:14.817Z,32.62
2019-05-03T14:51:45.681Z,31.29
2019-05-03T14:54:14.569Z,30.30
2019-05-03T14:56:50.926Z,31.78
2019-05-03T14:59:20.850Z,33.33
2019-05-03T15:01:50.779Z,34.40
2019-05-03T15:04:19.056Z,29.88
2019-05-03T15:06:47.338Z,28.75
2019-05-03T15:09:18.611Z,31.68
2019-05-03T15:11:45.612Z,32.67
2019-05-03T15:14:14.569Z,34.18
2019-05-03T15:16:44.904Z,32.59
2019-05-03T15:19:14.819Z,32.78
2019-05-03T15:21:45.154Z,33.38
2019-05-03T15:24:14.564Z,34.35
2019-05-03T15:26:44.745Z,34.56
2019-05-03T15:29:15.426Z,34.65
2019-05-03T15:31:44.740Z,33.65
2019-05-03T15:34:15.096Z,34.28
2019-05-03T15:36:45.032Z,34.63
2019-05-03T15:39:15.251Z,34.39
2019-05-03T15:41:45.475Z,33.82
2019-05-03T15:44:18.179Z,33.98
2019-05-03T15:46:48.086Z,34.90
2019-05-03T15:49:25.461Z,33.93
2019-05-03T15:51:53.916Z,34.65
2019-05-03T15:54:24.548Z,34.40
2019-05-03T15:56:54.260Z,31.07
2019-05-03T15:59:24.424Z,29.11
2019-05-03T16:01:56.808Z,32.84
2019-05-03T16:04:26.252Z,33.05
2019-05-03T16:06:55.439Z,33.46
2019-05-03T16:09:24.591Z,33.58
2019-05-03T16:11:52.984Z,34.33
2019-05-03T16:14:24.547Z,34.45
2019-05-03T16:16:54.637Z,33.55
2019-05-03T16:19:24.295Z,33.90
2019-05-03T16:21:54.384Z,33.78
2019-05-03T16:24:24.999Z,33.65
2019-05-03T16:27:06.961Z,34.01
2019-05-03T16:29:36.281Z,33.85
2019-05-03T16:32:05.190Z,34.86
2019-05-03T16:34:35.014Z,35.11
2019-05-03T16:37:04.368Z,34.81
2019-05-03T16:39:32.712Z,34.52
2019-05-03T16:42:00.979Z,34.23
2019-05-03T16:44:29.279Z,34.81
2019-05-03T16:46:57.543Z,35.42
2019-05-03T16:49:25.810Z,35.79
2019-05-03T16:51:54.888Z,35.75
2019-05-03T16:54:25.288Z,34.90
2019-05-03T16:56:54.929Z,35.61
2019-05-03T16:59:24.792Z,36.13
2019-05-03T17:01:55.090Z,35.55
2019-05-03T17:04:36.759Z,35.72
2019-05-03T17:07:09.281Z,35.33
2019-05-03T17:09:55.270Z,36.77
2019-05-03T17:12:25.697Z,36.20
2019-05-03T17:14:54.351Z,35.76
2019-05-03T17:17:25.234Z,35.98
2019-05-03T17:19:55.095Z,36.05
2019-05-03T17:22:25.203Z,35.81
2019-05-03T17:24:53.554Z,36.28
2019-05-03T17:27:21.841Z,36.79
2019-05-03T17:29:50.208Z,37.04
2019-05-03T17:32:18.476Z,36.43
2019-05-03T17:34:46.755Z,36.26
2019-05-03T17:37:15.041Z,36.33
2019-05-03T17:39:45.498Z,36.43
2019-05-03T17:42:27.494Z,37.16
2019-05-03T17:44:55.766Z,37.36
2019-05-03T17:47:25.593Z,36.71
2019-05-03T17:49:54.680Z,37.41
2019-05-03T17:52:42.525Z,37.71
2019-05-03T17:55:29.533Z,37.98
2019-05-03T17:58:01.921Z,38.47
2019-05-03T18:00:36.000Z,38.91
2019-05-03T18:03:09.905Z,38.45
2019-05-03T18:05:54.864Z,38.34
2019-05-03T18:08:30.531Z,38.07
2019-05-03T18:11:00.459Z,37.71
2019-05-03T18:13:28.848Z,38.42
2019-05-03T18:15:57.129Z,38.39
2019-05-03T18:18:25.489Z,38.36
2019-05-03T18:20:55.489Z,37.98
2019-05-03T18:23:24.636Z,38.20
2019-05-03T18:25:54.846Z,37.67
2019-05-03T18:28:24.979Z,38.35
2019-05-03T18:30:54.701Z,37.96
2019-05-03T18:33:24.730Z,38.97
2019-05-03T18:35:54.643Z,38.49
2019-05-03T18:38:25.284Z,38.33
2019-05-03T18:40:55.298Z,38.85
2019-05-03T18:43:28.021Z,38.43
2019-05-03T18:45:58.058Z,38.35
2019-05-03T18:48:26.707Z,39.21
2019-05-03T18:50:55.016Z,39.74
2019-05-03T18:53:25.056Z,39.44
2019-05-03T18:55:55.198Z,39.70
2019-05-03T18:58:24.392Z,39.17
2019-05-03T19:00:54.754Z,38.82
2019-05-03T19:03:25.009Z,38.90
2019-05-03T19:05:55.524Z,39.47
2019-05-03T19:08:26.437Z,39.40
2019-05-03T19:10:58.755Z,39.31
2019-05-03T19:13:31.717Z,38.84
2019-05-03T19:16:01.802Z,38.60
2019-05-03T19:18:31.720Z,39.07
2019-05-03T19:21:00.002Z,39.18
2019-05-03T19:23:28.268Z,38.98
2019-05-03T19:25:56.616Z,39.04
2019-05-03T19:28:26.819Z,39.73
2019-05-03T19:30:55.209Z,39.99
2019-05-03T19:33:24.592Z,39.42
2019-05-03T19:35:54.897Z,39.75
2019-05-03T19:38:24.588Z,40.00
2019-05-03T19:40:54.698Z,39.99
2019-05-03T19:43:24.394Z,40.09
2019-05-03T19:45:53.138Z,40.15
2019-05-03T19:48:21.441Z,40.83
2019-05-03T19:50:49.720Z,40.68
2019-05-03T19:53:19.642Z,40.81
2019-05-03T19:55:50.800Z,40.72
2019-05-03T19:58:19.422Z,40.49
2019-05-03T20:00:58.273Z,40.45
2019-05-03T20:03:37.051Z,40.77
2019-05-03T20:06:07.008Z,41.29
2019-05-03T20:08:37.038Z,41.03
2019-05-03T20:11:15.329Z,40.23
2019-05-03T20:13:45.808Z,41.41
2019-05-03T20:16:15.772Z,41.11
2019-05-03T20:18:45.395Z,41.02
2019-05-03T20:21:14.906Z,40.58
2019-05-03T20:23:46.710Z,40.73
2019-05-03T20:26:14.996Z,41.16
2019-05-03T20:28:44.911Z,41.21
2019-05-03T20:31:13.675Z,41.42
2019-05-03T20:33:42.028Z,41.45
2019-05-03T20:36:10.306Z,41.90
2019-05-03T20:38:38.610Z,41.65
2019-05-03T20:41:07.044Z,42.91
2019-05-03T20:43:36.972Z,43.17
2019-05-03T20:46:10.700Z,42.53
2019-05-03T20:48:40.020Z,43.11
2019-05-03T20:51:08.302Z,43.08
2019-05-03T20:53:36.599Z,43.66
2019-05-03T20:56:05.300Z,43.78
2019-05-03T20:58:35.663Z,43.71
2019-05-03T21:01:05.006Z,43.71
2019-05-03T21:03:33.328Z,43.64
2019-05-03T21:06:02.505Z,43.89
2019-05-03T21:08:31.354Z,45.01
2019-05-03T21:10:59.634Z,45.51
2019-05-03T21:13:39.190Z,44.43
2019-05-03T21:16:08.521Z,44.98
2019-05-03T21:18:50.214Z,44.86
2019-05-03T21:21:20.128Z,45.43
2019-05-03T21:24:01.980Z,45.29
2019-05-03T21:26:30.244Z,45.07
2019-05-03T21:28:58.494Z,45.75
2019-05-03T21:31:26.782Z,46.67
2019-05-03T21:33:55.315Z,45.76
2019-05-03T21:36:29.683Z,44.19
2019-05-03T21:39:05.321Z,44.93
2019-05-03T21:41:35.209Z,44.42
2019-05-03T21:44:04.922Z,44.01
2019-05-03T21:46:37.591Z,44.18
2019-05-03T21:49:19.425Z,44.78
2019-05-03T21:51:47.797Z,44.79
2019-05-03T21:54:16.072Z,44.91
2019-05-03T21:56:44.780Z,45.19
2019-05-03T21:59:14.059Z,46.01
2019-05-03T22:01:45.415Z,45.92
2019-05-03T22:04:15.624Z,45.03
2019-05-03T22:06:44.475Z,44.72
2019-05-03T22:09:12.798Z,44.75
2019-05-03T22:11:41.060Z,45.04
2019-05-03T22:14:10.967Z,46.35
2019-05-03T22:16:40.890Z,45.92
2019-05-03T22:19:09.143Z,46.81
2019-05-03T22:21:50.855Z,48.25
2019-05-03T22:24:26.709Z,47.31
2019-05-03T22:26:59.788Z,47.82
2019-05-03T22:29:28.042Z,48.64
2019-05-03T22:31:56.347Z,48.63
2019-05-03T22:34:25.676Z,47.76
2019-05-03T22:36:54.846Z,48.11
2019-05-03T22:39:24.977Z,48.61
2019-05-03T22:41:53.374Z,48.46
2019-05-03T22:44:21.700Z,48.11
2019-05-03T22:46:50.059Z,47.96
2019-05-03T22:49:18.314Z,48.43
2019-05-03T22:51:46.614Z,48.15
2019-05-03T22:54:15.373Z,48.54
2019-05-03T22:56:44.732Z,49.12
2019-05-03T22:59:14.923Z,47.99
2019-05-03T23:01:45.525Z,49.06
2019-05-03T23:04:14.699Z,48.92
2019-05-03T23:06:46.626Z,50.01
2019-05-03T23:09:15.671Z,50.50
2019-05-03T23:11:45.041Z,50.05
2019-05-03T23:14:15.086Z,49.76
2019-05-03T23:16:44.859Z,49.67
2019-05-03T23:19:14.889Z,50.11
2019-05-03T23:21:50.820Z,49.75
2019-05-03T23:24:20.051Z,49.76
2019-05-03T23:26:48.338Z,50.94
2019-05-03T23:29:16.605Z,50.60
2019-05-03T23:31:44.922Z,50.08
2019-05-03T23:34:13.226Z,49.73
2019-05-03T23:36:41.601Z,49.54
2019-05-03T23:39:09.881Z,49.88
2019-05-03T23:41:38.158Z,49.96
2019-05-03T23:44:06.502Z,48.53
2019-05-03T23:46:39.460Z,48.16
2019-05-03T23:49:07.752Z,49.18
2019-05-03T23:51:50.004Z,48.79
2019-05-03T23:54:18.523Z,48.57
2019-05-03T23:57:00.762Z,47.98
2019-05-03T23:59:37.712Z,48.73
